sensor_id;sensor_type;location;lat;lon;timestamp;temperature;humidity
41882;DHT22;27562;47.524;12.404;2023-10-13T00:02:11;13.40;99.90
41882;DHT22;27562;47.524;12.404;2023-10-13T00:04:39;13.40;99.90
41882;DHT22;27562;47.524;12.404;2023-10-13T00:07:05;13.30;99.90
41882;DHT22;27562;47.524;12.404;2023-10-13T00:09:34;13.30;99.90
41882;DHT22;27562;47.524;12.404;2023-10-13T00:12:04;13.30;99.90
41882;DHT22;27562;47.524;12.404;2023-10-13T00:14:34;13.30;99.90
41882;DHT22;27562;47.524;12.404;2023-10-13T00:17:04;13.30;99.90
41882;DHT22;27562;47.524;12.404;2023-10-13T00:19:35;13.20;99.90
41882;DHT22;27562;47.524;12.404;2023-10-13T00:22:12;13.20;99.90
41882;DHT22;27562;47.524;12.404;2023-10-13T00:24:39;13.10;99.90
41882;DHT22;27562;47.524;12.404;2023-10-13T00:27:15;13.10;99.90
41882;DHT22;27562;47.524;12.404;2023-10-13T00:29:58;13.10;99.90
41882;DHT22;27562;47.524;12.404;2023-10-13T00:32:48;13.10;99.90
41882;DHT22;27562;47.524;12.404;2023-10-13T00:35:20;13.10;99.90
41882;DHT22;27562;47.524;12.404;2023-10-13T00:37:58;13.10;99.90
41882;DHT22;27562;47.524;12.404;2023-10-13T00:40:30;13.00;99.90
41882;DHT22;27562;47.524;12.404;2023-10-13T00:43:00;13.00;99.90
41882;DHT22;27562;47.524;12.404;2023-10-13T00:45:50;13.00;99.90
41882;DHT22;27562;47.524;12.404;2023-10-13T00:48:37;12.90;99.90
41882;DHT22;27562;47.524;12.404;2023-10-13T00:51:17;12.90;99.90
41882;DHT22;27562;47.524;12.404;2023-10-13T00:54:04;12.80;99.90
41882;DHT22;27562;47.524;12.404;2023-10-13T00:56:41;12.80;99.90
41882;DHT22;27562;47.524;12.404;2023-10-13T00:59:17;12.70;99.90
41882;DHT22;27562;47.524;12.404;2023-10-13T01:01:45;12.70;99.90
41882;DHT22;27562;47.524;12.404;2023-10-13T01:04:12;12.70;99.90
41882;DHT22;27562;47.524;12.404;2023-10-13T01:06:41;12.60;99.90
41882;DHT22;27562;47.524;12.404;2023-10-13T01:09:09;12.60;99.90
41882;DHT22;27562;47.524;12.404;2023-10-13T01:11:40;12.50;99.90
41882;DHT22;27562;47.524;12.404;2023-10-13T01:14:09;12.50;99.90
41882;DHT22;27562;47.524;12.404;2023-10-13T01:16:37;12.40;99.90
41882;DHT22;27562;47.524;12.404;2023-10-13T01:19:12;12.30;99.90
41882;DHT22;27562;47.524;12.404;2023-10-13T01:21:38;12.10;99.90
41882;DHT22;27562;47.524;12.404;2023-10-13T01:24:07;12.00;99.90
41882;DHT22;27562;47.524;12.404;2023-10-13T01:26:34;11.80;99.90
41882;DHT22;27562;47.524;12.404;2023-10-13T01:29:05;11.80;99.90
41882;DHT22;27562;47.524;12.404;2023-10-13T01:31:44;11.80;99.90
41882;DHT22;27562;47.524;12.404;2023-10-13T01:34:17;11.80;99.90
41882;DHT22;27562;47.524;12.404;2023-10-13T01:36:48;11.80;99.90
41882;DHT22;27562;47.524;12.404;2023-10-13T01:39:16;11.80;99.90
41882;DHT22;27562;47.524;12.404;2023-10-13T01:41:43;11.80;99.90
41882;DHT22;27562;47.524;12.404;2023-10-13T01:44:09;11.80;99.90
41882;DHT22;27562;47.524;12.404;2023-10-13T01:46:40;11.80;99.90
41882;DHT22;27562;47.524;12.404;2023-10-13T01:49:08;11.80;99.90
41882;DHT22;27562;47.524;12.404;2023-10-13T01:51:34;11.70;99.90
41882;DHT22;27562;47.524;12.404;2023-10-13T01:53:59;11.70;99.90
41882;DHT22;27562;47.524;12.404;2023-10-13T01:56:28;11.60;99.90
41882;DHT22;27562;47.524;12.404;2023-10-13T01:58:55;11.50;99.90
41882;DHT22;27562;47.524;12.404;2023-10-13T02:01:21;11.50;99.90
41882;DHT22;27562;47.524;12.404;2023-10-13T02:03:55;11.40;99.90
41882;DHT22;27562;47.524;12.404;2023-10-13T02:06:35;11.40;99.90
41882;DHT22;27562;47.524;12.404;2023-10-13T02:09:05;11.40;99.90
41882;DHT22;27562;47.524;12.404;2023-10-13T02:11:51;11.40;99.90
41882;DHT22;27562;47.524;12.404;2023-10-13T02:14:21;11.30;99.90
41882;DHT22;27562;47.524;12.404;2023-10-13T02:16:48;11.30;99.90
41882;DHT22;27562;47.524;12.404;2023-10-13T02:19:16;11.30;99.90
41882;DHT22;27562;47.524;12.404;2023-10-13T02:21:45;11.30;99.90
41882;DHT22;27562;47.524;12.404;2023-10-13T02:24:11;11.30;99.90
41882;DHT22;27562;47.524;12.404;2023-10-13T02:26:44;11.20;99.90
41882;DHT22;27562;47.524;12.404;2023-10-13T02:29:11;11.20;99.90
41882;DHT22;27562;47.524;12.404;2023-10-13T02:31:41;11.20;99.90
41882;DHT22;27562;47.524;12.404;2023-10-13T02:34:07;11.20;99.90
41882;DHT22;27562;47.524;12.404;2023-10-13T02:36:37;11.20;99.90
41882;DHT22;27562;47.524;12.404;2023-10-13T02:39:05;11.20;99.90
41882;DHT22;27562;47.524;12.404;2023-10-13T02:41:34;11.20;99.90
41882;DHT22;27562;47.524;12.404;2023-10-13T02:44:03;11.10;99.90
41882;DHT22;27562;47.524;12.404;2023-10-13T02:46:34;11.10;99.90
41882;DHT22;27562;47.524;12.404;2023-10-13T02:49:05;11.10;99.90
41882;DHT22;27562;47.524;12.404;2023-10-13T02:51:38;11.10;99.90
41882;DHT22;27562;47.524;12.404;2023-10-13T02:54:07;11.10;99.90
41882;DHT22;27562;47.524;12.404;2023-10-13T02:56:40;11.00;99.90
41882;DHT22;27562;47.524;12.404;2023-10-13T02:59:26;10.90;99.90
41882;DHT22;27562;47.524;12.404;2023-10-13T03:02:15;10.90;99.90
41882;DHT22;27562;47.524;12.404;2023-10-13T03:04:51;10.90;99.90
41882;DHT22;27562;47.524;12.404;2023-10-13T03:07:17;10.80;99.90
41882;DHT22;27562;47.524;12.404;2023-10-13T03:09:52;10.80;99.90
41882;DHT22;27562;47.524;12.404;2023-10-13T03:12:18;10.70;99.90
41882;DHT22;27562;47.524;12.404;2023-10-13T03:14:44;10.60;99.90
41882;DHT22;27562;47.524;12.404;2023-10-13T03:17:13;10.50;99.90
41882;DHT22;27562;47.524;12.404;2023-10-13T03:19:43;10.40;99.90
41882;DHT22;27562;47.524;12.404;2023-10-13T03:22:15;10.40;99.90
41882;DHT22;27562;47.524;12.404;2023-10-13T03:24:43;10.40;99.90
41882;DHT22;27562;47.524;12.404;2023-10-13T03:27:13;10.40;99.90
41882;DHT22;27562;47.524;12.404;2023-10-13T03:29:42;10.40;99.90
41882;DHT22;27562;47.524;12.404;2023-10-13T03:32:17;10.40;99.90
41882;DHT22;27562;47.524;12.404;2023-10-13T03:34:44;10.30;99.90
41882;DHT22;27562;47.524;12.404;2023-10-13T03:37:25;10.30;99.90
41882;DHT22;27562;47.524;12.404;2023-10-13T03:42:57;10.10;99.90
41882;DHT22;27562;47.524;12.404;2023-10-13T03:45:39;10.00;99.90
41882;DHT22;27562;47.524;12.404;2023-10-13T03:48:25;10.00;99.90
41882;DHT22;27562;47.524;12.404;2023-10-13T03:50:59;10.00;99.90
41882;DHT22;27562;47.524;12.404;2023-10-13T03:53:27;10.00;99.90
41882;DHT22;27562;47.524;12.404;2023-10-13T03:56:01;10.00;99.90
41882;DHT22;27562;47.524;12.404;2023-10-13T03:58:37;9.90;99.90
41882;DHT22;27562;47.524;12.404;2023-10-13T04:01:04;9.80;99.90
41882;DHT22;27562;47.524;12.404;2023-10-13T04:03:31;9.80;99.90
41882;DHT22;27562;47.524;12.404;2023-10-13T04:06:04;9.70;99.90
41882;DHT22;27562;47.524;12.404;2023-10-13T04:08:34;9.70;99.90
41882;DHT22;27562;47.524;12.404;2023-10-13T04:11:08;9.70;99.90
41882;DHT22;27562;47.524;12.404;2023-10-13T04:13:53;9.80;99.90
41882;DHT22;27562;47.524;12.404;2023-10-13T04:16:37;9.80;99.90
41882;DHT22;27562;47.524;12.404;2023-10-13T04:19:17;9.80;99.90
41882;DHT22;27562;47.524;12.404;2023-10-13T04:21:50;9.80;99.90
41882;DHT22;27562;47.524;12.404;2023-10-13T04:24:26;9.90;99.90
41882;DHT22;27562;47.524;12.404;2023-10-13T04:27:10;9.90;99.90
41882;DHT22;27562;47.524;12.404;2023-10-13T04:29:55;9.90;99.90
41882;DHT22;27562;47.524;12.404;2023-10-13T04:32:21;9.90;99.90
41882;DHT22;27562;47.524;12.404;2023-10-13T04:35:04;9.90;99.90
41882;DHT22;27562;47.524;12.404;2023-10-13T04:37:39;9.90;99.90
41882;DHT22;27562;47.524;12.404;2023-10-13T04:40:24;9.90;99.90
41882;DHT22;27562;47.524;12.404;2023-10-13T04:43:00;9.90;99.90
41882;DHT22;27562;47.524;12.404;2023-10-13T04:45:46;9.90;99.90
41882;DHT22;27562;47.524;12.404;2023-10-13T04:48:19;9.90;99.90
41882;DHT22;27562;47.524;12.404;2023-10-13T04:50:49;9.90;99.90
41882;DHT22;27562;47.524;12.404;2023-10-13T04:53:24;9.90;99.90
41882;DHT22;27562;47.524;12.404;2023-10-13T04:56:13;9.90;99.90
41882;DHT22;27562;47.524;12.404;2023-10-13T04:59:01;9.90;99.90
41882;DHT22;27562;47.524;12.404;2023-10-13T05:01:46;9.90;99.90
41882;DHT22;27562;47.524;12.404;2023-10-13T05:04:46;9.90;99.90
41882;DHT22;27562;47.524;12.404;2023-10-13T05:07:31;9.80;99.90
41882;DHT22;27562;47.524;12.404;2023-10-13T05:10:15;9.80;99.90
41882;DHT22;27562;47.524;12.404;2023-10-13T05:13:00;9.70;99.90
41882;DHT22;27562;47.524;12.404;2023-10-13T05:15:46;9.70;99.90
41882;DHT22;27562;47.524;12.404;2023-10-13T05:18:30;9.60;99.90
41882;DHT22;27562;47.524;12.404;2023-10-13T05:21:14;9.50;99.90
41882;DHT22;27562;47.524;12.404;2023-10-13T05:23:58;9.60;99.90
41882;DHT22;27562;47.524;12.404;2023-10-13T05:26:42;9.50;99.90
41882;DHT22;27562;47.524;12.404;2023-10-13T05:29:26;9.50;99.90
41882;DHT22;27562;47.524;12.404;2023-10-13T05:32:10;9.50;99.90
41882;DHT22;27562;47.524;12.404;2023-10-13T05:34:55;9.50;99.90
41882;DHT22;27562;47.524;12.404;2023-10-13T05:37:43;9.50;99.90
41882;DHT22;27562;47.524;12.404;2023-10-13T05:40:28;9.50;99.90
41882;DHT22;27562;47.524;12.404;2023-10-13T05:43:12;9.50;99.90
41882;DHT22;27562;47.524;12.404;2023-10-13T05:46:02;9.50;99.90
41882;DHT22;27562;47.524;12.404;2023-10-13T05:48:47;9.50;99.90
41882;DHT22;27562;47.524;12.404;2023-10-13T05:54:17;9.50;99.90
41882;DHT22;27562;47.524;12.404;2023-10-13T05:56:50;9.50;99.90
41882;DHT22;27562;47.524;12.404;2023-10-13T05:59:38;9.50;99.90
41882;DHT22;27562;47.524;12.404;2023-10-13T06:02:23;9.50;99.90
41882;DHT22;27562;47.524;12.404;2023-10-13T06:05:09;9.50;99.90
41882;DHT22;27562;47.524;12.404;2023-10-13T06:07:53;9.50;99.90
41882;DHT22;27562;47.524;12.404;2023-10-13T06:10:38;9.40;99.90
41882;DHT22;27562;47.524;12.404;2023-10-13T06:13:23;9.40;99.90
41882;DHT22;27562;47.524;12.404;2023-10-13T06:16:13;9.40;99.90
41882;DHT22;27562;47.524;12.404;2023-10-13T06:18:58;9.40;99.90
41882;DHT22;27562;47.524;12.404;2023-10-13T06:21:43;9.40;99.90
41882;DHT22;27562;47.524;12.404;2023-10-13T06:24:28;9.30;99.90
41882;DHT22;27562;47.524;12.404;2023-10-13T06:27:13;9.30;99.90
41882;DHT22;27562;47.524;12.404;2023-10-13T06:29:57;9.30;99.90
41882;DHT22;27562;47.524;12.404;2023-10-13T06:32:23;9.20;99.90
41882;DHT22;27562;47.524;12.404;2023-10-13T06:34:58;9.20;99.90
41882;DHT22;27562;47.524;12.404;2023-10-13T06:37:27;9.30;99.90
41882;DHT22;27562;47.524;12.404;2023-10-13T06:39:57;9.30;99.90
41882;DHT22;27562;47.524;12.404;2023-10-13T06:42:24;9.30;99.90
41882;DHT22;27562;47.524;12.404;2023-10-13T06:44:55;9.30;99.90
41882;DHT22;27562;47.524;12.404;2023-10-13T06:47:24;9.30;99.90
41882;DHT22;27562;47.524;12.404;2023-10-13T06:49:50;9.30;99.90
41882;DHT22;27562;47.524;12.404;2023-10-13T06:52:23;9.40;99.90
41882;DHT22;27562;47.524;12.404;2023-10-13T06:54:55;9.40;99.90
41882;DHT22;27562;47.524;12.404;2023-10-13T06:57:21;9.40;99.90
41882;DHT22;27562;47.524;12.404;2023-10-13T06:59:47;9.50;99.90
41882;DHT22;27562;47.524;12.404;2023-10-13T07:02:13;9.50;99.90
41882;DHT22;27562;47.524;12.404;2023-10-13T07:04:48;9.60;99.90
41882;DHT22;27562;47.524;12.404;2023-10-13T07:07:23;9.60;99.90
41882;DHT22;27562;47.524;12.404;2023-10-13T07:09:49;9.60;99.90
41882;DHT22;27562;47.524;12.404;2023-10-13T07:12:21;9.70;99.90
41882;DHT22;27562;47.524;12.404;2023-10-13T07:14:52;9.70;99.90
41882;DHT22;27562;47.524;12.404;2023-10-13T07:17:19;9.80;99.90
41882;DHT22;27562;47.524;12.404;2023-10-13T07:19:53;9.90;99.90
41882;DHT22;27562;47.524;12.404;2023-10-13T07:22:19;10.00;99.90
41882;DHT22;27562;47.524;12.404;2023-10-13T07:24:49;10.10;99.90
41882;DHT22;27562;47.524;12.404;2023-10-13T07:27:22;10.20;99.90
41882;DHT22;27562;47.524;12.404;2023-10-13T07:29:59;10.30;99.90
41882;DHT22;27562;47.524;12.404;2023-10-13T07:32:41;10.40;99.90
41882;DHT22;27562;47.524;12.404;2023-10-13T07:35:18;10.60;99.90
41882;DHT22;27562;47.524;12.404;2023-10-13T07:37:50;10.70;99.90
41882;DHT22;27562;47.524;12.404;2023-10-13T07:40:18;10.90;99.90
41882;DHT22;27562;47.524;12.404;2023-10-13T07:42:56;11.00;99.90
41882;DHT22;27562;47.524;12.404;2023-10-13T07:45:37;11.00;99.90
41882;DHT22;27562;47.524;12.404;2023-10-13T07:48:11;11.10;99.90
41882;DHT22;27562;47.524;12.404;2023-10-13T07:51:04;11.20;99.90
41882;DHT22;27562;47.524;12.404;2023-10-13T07:53:33;11.20;99.90
41882;DHT22;27562;47.524;12.404;2023-10-13T07:56:09;11.40;99.90
41882;DHT22;27562;47.524;12.404;2023-10-13T07:58:37;11.40;99.90
41882;DHT22;27562;47.524;12.404;2023-10-13T08:01:21;11.50;99.90
41882;DHT22;27562;47.524;12.404;2023-10-13T08:03:47;11.70;99.90
41882;DHT22;27562;47.524;12.404;2023-10-13T08:06:16;11.80;99.90
41882;DHT22;27562;47.524;12.404;2023-10-13T08:08:42;11.90;99.90
41882;DHT22;27562;47.524;12.404;2023-10-13T08:11:13;12.00;99.90
41882;DHT22;27562;47.524;12.404;2023-10-13T08:13:53;12.10;99.90
41882;DHT22;27562;47.524;12.404;2023-10-13T08:16:33;12.30;99.90
41882;DHT22;27562;47.524;12.404;2023-10-13T08:19:19;12.40;99.90
41882;DHT22;27562;47.524;12.404;2023-10-13T08:21:47;12.60;99.90
41882;DHT22;27562;47.524;12.404;2023-10-13T08:24:23;12.70;99.90
41882;DHT22;27562;47.524;12.404;2023-10-13T08:27:16;12.90;99.90
41882;DHT22;27562;47.524;12.404;2023-10-13T08:30:01;13.00;99.90
41882;DHT22;27562;47.524;12.404;2023-10-13T08:32:28;13.20;99.90
41882;DHT22;27562;47.524;12.404;2023-10-13T08:34:55;13.30;99.90
41882;DHT22;27562;47.524;12.404;2023-10-13T08:37:21;13.40;99.90
41882;DHT22;27562;47.524;12.404;2023-10-13T08:39:51;13.50;99.90
41882;DHT22;27562;47.524;12.404;2023-10-13T08:45:15;13.80;99.90
41882;DHT22;27562;47.524;12.404;2023-10-13T08:48:05;13.90;99.90
41882;DHT22;27562;47.524;12.404;2023-10-13T08:56:02;14.30;99.90
41882;DHT22;27562;47.524;12.404;2023-10-13T08:58:55;14.40;99.90
41882;DHT22;27562;47.524;12.404;2023-10-13T09:01:34;14.60;99.90
41882;DHT22;27562;47.524;12.404;2023-10-13T09:04:11;14.70;99.90
41882;DHT22;27562;47.524;12.404;2023-10-13T09:06:47;14.90;99.90
41882;DHT22;27562;47.524;12.404;2023-10-13T09:09:23;15.00;99.90
41882;DHT22;27562;47.524;12.404;2023-10-13T09:11:53;15.20;99.90
41882;DHT22;27562;47.524;12.404;2023-10-13T09:14:33;15.30;99.90
41882;DHT22;27562;47.524;12.404;2023-10-13T09:17:05;15.40;99.90
41882;DHT22;27562;47.524;12.404;2023-10-13T09:19:46;15.60;99.90
41882;DHT22;27562;47.524;12.404;2023-10-13T09:22:26;15.70;99.90
41882;DHT22;27562;47.524;12.404;2023-10-13T09:25:02;15.90;99.90
41882;DHT22;27562;47.524;12.404;2023-10-13T09:27:31;16.00;99.90
41882;DHT22;27562;47.524;12.404;2023-10-13T09:30:05;16.10;99.90
41882;DHT22;27562;47.524;12.404;2023-10-13T09:32:44;16.20;99.90
41882;DHT22;27562;47.524;12.404;2023-10-13T09:35:20;16.40;99.90
41882;DHT22;27562;47.524;12.404;2023-10-13T09:37:53;16.50;99.90
41882;DHT22;27562;47.524;12.404;2023-10-13T09:40:25;16.60;99.90
41882;DHT22;27562;47.524;12.404;2023-10-13T09:42:55;16.80;99.90
41882;DHT22;27562;47.524;12.404;2023-10-13T09:45:28;16.90;99.90
41882;DHT22;27562;47.524;12.404;2023-10-13T09:47:55;17.00;99.90
41882;DHT22;27562;47.524;12.404;2023-10-13T09:50:37;17.10;99.90
41882;DHT22;27562;47.524;12.404;2023-10-13T09:53:06;17.20;99.90
41882;DHT22;27562;47.524;12.404;2023-10-13T09:55:38;17.40;99.90
41882;DHT22;27562;47.524;12.404;2023-10-13T09:58:11;17.50;99.90
41882;DHT22;27562;47.524;12.404;2023-10-13T10:00:47;17.60;99.90
41882;DHT22;27562;47.524;12.404;2023-10-13T10:03:15;17.70;99.90
41882;DHT22;27562;47.524;12.404;2023-10-13T10:06:02;17.80;99.90
41882;DHT22;27562;47.524;12.404;2023-10-13T10:08:44;18.00;99.90
41882;DHT22;27562;47.524;12.404;2023-10-13T10:11:26;18.10;99.90
41882;DHT22;27562;47.524;12.404;2023-10-13T10:17:07;18.30;99.90
41882;DHT22;27562;47.524;12.404;2023-10-13T10:19:45;18.40;99.90
41882;DHT22;27562;47.524;12.404;2023-10-13T10:22:10;18.60;99.90
41882;DHT22;27562;47.524;12.404;2023-10-13T10:24:43;18.70;99.90
41882;DHT22;27562;47.524;12.404;2023-10-13T10:27:09;18.80;99.90
41882;DHT22;27562;47.524;12.404;2023-10-13T10:29:52;18.80;99.90
41882;DHT22;27562;47.524;12.404;2023-10-13T10:32:18;18.90;99.90
41882;DHT22;27562;47.524;12.404;2023-10-13T10:34:44;19.00;99.90
41882;DHT22;27562;47.524;12.404;2023-10-13T10:37:11;19.20;99.90
41882;DHT22;27562;47.524;12.404;2023-10-13T10:39:37;19.20;99.90
41882;DHT22;27562;47.524;12.404;2023-10-13T10:42:14;19.40;99.60
41882;DHT22;27562;47.524;12.404;2023-10-13T10:44:54;19.40;98.30
41882;DHT22;27562;47.524;12.404;2023-10-13T10:47:31;19.50;99.20
41882;DHT22;27562;47.524;12.404;2023-10-13T10:50:00;19.60;99.00
41882;DHT22;27562;47.524;12.404;2023-10-13T10:52:35;19.70;98.30
41882;DHT22;27562;47.524;12.404;2023-10-13T10:55:06;19.80;99.00
41882;DHT22;27562;47.524;12.404;2023-10-13T10:57:33;19.90;98.50
41882;DHT22;27562;47.524;12.404;2023-10-13T11:00:04;20.00;99.10
41882;DHT22;27562;47.524;12.404;2023-10-13T11:02:41;20.10;98.20
41882;DHT22;27562;47.524;12.404;2023-10-13T11:05:07;20.20;98.30
41882;DHT22;27562;47.524;12.404;2023-10-13T11:07:35;20.30;97.80
41882;DHT22;27562;47.524;12.404;2023-10-13T11:10:11;20.40;97.20
41882;DHT22;27562;47.524;12.404;2023-10-13T11:12:56;20.50;96.00
41882;DHT22;27562;47.524;12.404;2023-10-13T11:15:46;20.60;95.50
41882;DHT22;27562;47.524;12.404;2023-10-13T11:18:12;20.70;95.80
41882;DHT22;27562;47.524;12.404;2023-10-13T11:20:59;20.80;95.30
41882;DHT22;27562;47.524;12.404;2023-10-13T11:23:25;20.80;95.60
41882;DHT22;27562;47.524;12.404;2023-10-13T11:26:00;20.90;95.10
41882;DHT22;27562;47.524;12.404;2023-10-13T11:28:26;21.10;95.60
41882;DHT22;27562;47.524;12.404;2023-10-13T11:30:58;21.10;95.10
41882;DHT22;27562;47.524;12.404;2023-10-13T11:33:25;21.30;95.20
41882;DHT22;27562;47.524;12.404;2023-10-13T11:35:55;21.40;94.10
41882;DHT22;27562;47.524;12.404;2023-10-13T11:38:26;21.40;94.60
41882;DHT22;27562;47.524;12.404;2023-10-13T11:40:53;21.40;94.30
41882;DHT22;27562;47.524;12.404;2023-10-13T11:46:25;21.60;94.40
41882;DHT22;27562;47.524;12.404;2023-10-13T11:49:10;21.70;93.60
41882;DHT22;27562;47.524;12.404;2023-10-13T11:51:42;21.80;92.40
41882;DHT22;27562;47.524;12.404;2023-10-13T11:54:19;21.90;93.70
41882;DHT22;27562;47.524;12.404;2023-10-13T11:56:45;22.00;93.00
41882;DHT22;27562;47.524;12.404;2023-10-13T11:59:11;22.00;91.40
41882;DHT22;27562;47.524;12.404;2023-10-13T12:01:47;22.00;92.40
41882;DHT22;27562;47.524;12.404;2023-10-13T12:04:31;22.10;91.70
41882;DHT22;27562;47.524;12.404;2023-10-13T12:07:09;22.10;91.60
41882;DHT22;27562;47.524;12.404;2023-10-13T12:09:54;22.20;93.00
41882;DHT22;27562;47.524;12.404;2023-10-13T12:12:20;22.30;92.70
41882;DHT22;27562;47.524;12.404;2023-10-13T12:14:46;22.40;91.50
41882;DHT22;27562;47.524;12.404;2023-10-13T12:17:23;22.60;92.80
41882;DHT22;27562;47.524;12.404;2023-10-13T12:19:57;22.70;92.30
41882;DHT22;27562;47.524;12.404;2023-10-13T12:22:24;22.90;90.20
41882;DHT22;27562;47.524;12.404;2023-10-13T12:24:57;22.90;90.50
41882;DHT22;27562;47.524;12.404;2023-10-13T12:27:22;23.00;91.00
41882;DHT22;27562;47.524;12.404;2023-10-13T12:30:00;23.20;88.10
41882;DHT22;27562;47.524;12.404;2023-10-13T12:32:33;23.30;88.80
41882;DHT22;27562;47.524;12.404;2023-10-13T12:35:00;23.30;86.40
41882;DHT22;27562;47.524;12.404;2023-10-13T12:37:30;23.40;83.70
41882;DHT22;27562;47.524;12.404;2023-10-13T12:40:05;23.50;87.00
41882;DHT22;27562;47.524;12.404;2023-10-13T12:42:51;23.60;85.60
41882;DHT22;27562;47.524;12.404;2023-10-13T12:45:42;23.70;87.50
41882;DHT22;27562;47.524;12.404;2023-10-13T12:48:26;23.90;87.80
41882;DHT22;27562;47.524;12.404;2023-10-13T12:51:11;24.00;82.70
41882;DHT22;27562;47.524;12.404;2023-10-13T12:53:50;24.10;83.00
41882;DHT22;27562;47.524;12.404;2023-10-13T12:56:17;24.20;84.80
41882;DHT22;27562;47.524;12.404;2023-10-13T12:58:43;24.30;85.90
41882;DHT22;27562;47.524;12.404;2023-10-13T13:01:22;24.40;81.30
41882;DHT22;27562;47.524;12.404;2023-10-13T13:03:50;24.50;83.50
41882;DHT22;27562;47.524;12.404;2023-10-13T13:06:20;24.60;81.90
41882;DHT22;27562;47.524;12.404;2023-10-13T13:08:59;24.60;82.60
41882;DHT22;27562;47.524;12.404;2023-10-13T13:11:26;24.70;80.00
41882;DHT22;27562;47.524;12.404;2023-10-13T13:13:55;24.80;80.40
41882;DHT22;27562;47.524;12.404;2023-10-13T13:16:21;24.90;80.80
41882;DHT22;27562;47.524;12.404;2023-10-13T13:18:52;25.00;80.20
41882;DHT22;27562;47.524;12.404;2023-10-13T13:21:20;25.10;79.50
41882;DHT22;27562;47.524;12.404;2023-10-13T13:23:49;25.20;78.00
41882;DHT22;27562;47.524;12.404;2023-10-13T13:26:15;25.30;80.30
41882;DHT22;27562;47.524;12.404;2023-10-13T13:28:46;25.40;79.00
41882;DHT22;27562;47.524;12.404;2023-10-13T13:31:16;25.50;78.70
41882;DHT22;27562;47.524;12.404;2023-10-13T13:33:42;25.60;78.60
41882;DHT22;27562;47.524;12.404;2023-10-13T13:36:12;25.60;76.10
41882;DHT22;27562;47.524;12.404;2023-10-13T13:38:50;25.70;78.30
41882;DHT22;27562;47.524;12.404;2023-10-13T13:41:17;25.70;77.80
41882;DHT22;27562;47.524;12.404;2023-10-13T13:43:47;25.80;79.60
41882;DHT22;27562;47.524;12.404;2023-10-13T13:46:19;25.90;75.90
41882;DHT22;27562;47.524;12.404;2023-10-13T13:48:50;25.90;75.80
41882;DHT22;27562;47.524;12.404;2023-10-13T13:51:23;25.90;75.70
41882;DHT22;27562;47.524;12.404;2023-10-13T13:53:53;25.90;74.70
41882;DHT22;27562;47.524;12.404;2023-10-13T13:56:19;25.90;73.40
41882;DHT22;27562;47.524;12.404;2023-10-13T13:58:46;26.00;74.30
41882;DHT22;27562;47.524;12.404;2023-10-13T14:01:12;26.00;74.00
41882;DHT22;27562;47.524;12.404;2023-10-13T14:03:40;26.00;73.30
41882;DHT22;27562;47.524;12.404;2023-10-13T14:06:14;26.10;73.20
41882;DHT22;27562;47.524;12.404;2023-10-13T14:08:51;26.10;73.80
41882;DHT22;27562;47.524;12.404;2023-10-13T14:11:20;26.10;73.70
41882;DHT22;27562;47.524;12.404;2023-10-13T14:14:05;26.20;74.10
41882;DHT22;27562;47.524;12.404;2023-10-13T14:16:38;26.20;73.70
41882;DHT22;27562;47.524;12.404;2023-10-13T14:19:16;26.20;72.90
41882;DHT22;27562;47.524;12.404;2023-10-13T14:21:45;26.20;72.90
41882;DHT22;27562;47.524;12.404;2023-10-13T14:24:19;26.10;71.90
41882;DHT22;27562;47.524;12.404;2023-10-13T14:26:56;26.00;72.10
41882;DHT22;27562;47.524;12.404;2023-10-13T14:29:21;25.90;72.40
41882;DHT22;27562;47.524;12.404;2023-10-13T14:31:52;25.80;72.70
41882;DHT22;27562;47.524;12.404;2023-10-13T14:34:18;25.80;73.60
41882;DHT22;27562;47.524;12.404;2023-10-13T14:36:47;25.70;74.60
41882;DHT22;27562;47.524;12.404;2023-10-13T14:39:14;25.70;76.00
41882;DHT22;27562;47.524;12.404;2023-10-13T14:41:40;25.70;76.40
41882;DHT22;27562;47.524;12.404;2023-10-13T14:44:06;25.60;76.40
41882;DHT22;27562;47.524;12.404;2023-10-13T14:46:33;25.50;75.90
41882;DHT22;27562;47.524;12.404;2023-10-13T14:49:02;25.40;75.50
41882;DHT22;27562;47.524;12.404;2023-10-13T14:51:28;25.30;75.70
41882;DHT22;27562;47.524;12.404;2023-10-13T14:53:54;25.20;77.10
41882;DHT22;27562;47.524;12.404;2023-10-13T14:56:26;25.00;78.70
41882;DHT22;27562;47.524;12.404;2023-10-13T14:58:53;24.80;79.00
41882;DHT22;27562;47.524;12.404;2023-10-13T15:01:21;24.70;78.80
41882;DHT22;27562;47.524;12.404;2023-10-13T15:03:49;24.60;79.60
41882;DHT22;27562;47.524;12.404;2023-10-13T15:06:22;24.40;80.10
41882;DHT22;27562;47.524;12.404;2023-10-13T15:08:58;24.30;81.20
41882;DHT22;27562;47.524;12.404;2023-10-13T15:11:25;24.20;83.10
41882;DHT22;27562;47.524;12.404;2023-10-13T15:14:05;24.20;85.50
41882;DHT22;27562;47.524;12.404;2023-10-13T15:16:34;24.00;87.10
41882;DHT22;27562;47.524;12.404;2023-10-13T15:18:59;23.80;88.70
41882;DHT22;27562;47.524;12.404;2023-10-13T15:21:27;23.70;89.40
41882;DHT22;27562;47.524;12.404;2023-10-13T15:23:56;23.60;89.50
41882;DHT22;27562;47.524;12.404;2023-10-13T15:26:29;23.60;89.30
41882;DHT22;27562;47.524;12.404;2023-10-13T15:28:55;23.60;87.80
41882;DHT22;27562;47.524;12.404;2023-10-13T15:31:26;23.70;89.20
41882;DHT22;27562;47.524;12.404;2023-10-13T15:34:03;23.60;89.80
41882;DHT22;27562;47.524;12.404;2023-10-13T15:36:34;23.60;90.30
41882;DHT22;27562;47.524;12.404;2023-10-13T15:39:00;23.50;90.70
41882;DHT22;27562;47.524;12.404;2023-10-13T15:41:27;23.40;91.10
41882;DHT22;27562;47.524;12.404;2023-10-13T15:43:54;23.30;91.40
41882;DHT22;27562;47.524;12.404;2023-10-13T15:46:21;23.20;91.70
41882;DHT22;27562;47.524;12.404;2023-10-13T15:48:51;23.10;92.00
41882;DHT22;27562;47.524;12.404;2023-10-13T15:51:18;23.10;92.00
41882;DHT22;27562;47.524;12.404;2023-10-13T15:53:44;22.90;91.60
41882;DHT22;27562;47.524;12.404;2023-10-13T15:56:11;22.80;91.60
41882;DHT22;27562;47.524;12.404;2023-10-13T15:58:43;22.70;91.00
41882;DHT22;27562;47.524;12.404;2023-10-13T16:01:10;22.50;91.50
41882;DHT22;27562;47.524;12.404;2023-10-13T16:03:40;22.30;92.30
41882;DHT22;27562;47.524;12.404;2023-10-13T16:06:08;22.10;93.00
41882;DHT22;27562;47.524;12.404;2023-10-13T16:08:38;21.80;93.80
41882;DHT22;27562;47.524;12.404;2023-10-13T16:11:08;21.50;94.30
41882;DHT22;27562;47.524;12.404;2023-10-13T16:13:41;21.30;94.40
41882;DHT22;27562;47.524;12.404;2023-10-13T16:16:21;21.10;94.80
41882;DHT22;27562;47.524;12.404;2023-10-13T16:18:51;20.90;95.40
41882;DHT22;27562;47.524;12.404;2023-10-13T16:21:17;20.90;96.00